Chapel Hill, NC

05:42 EDT le 02 avril 2015 (GMT -0400)
Person County | | Change Station
CLOSE
Current Station
Aéroport
Location: Roxboro,
Altitude: 610 ft
Stations météo à proximité

Alt. 610 ft 36.28 °N, 78.98 °W | Updated 7 minutes ago

Ciel dégagé
Ciel dégagé
43 ° F
Paraît 40 ° F
N
5
Vent Variable Vent de SSO

Aujourd'hui
Haut(e) -- | Bas -- ° F
--% Risque de précip.
Hier
Haut(e) -- | Bas -- ° F
Precip. -- pouce
7:01 AM 7:38 PM
Lune gibbeuse croissante, 96% visible
Pression 30.29 pouce
Visibilité 10.0 Miles terrestres
Nuages Ciel dégagé
Refroidissement éolien 40 ° F
Point de rosée 36 ° F
Humidité 76%
Précipitations 0.00 pouce
Profondeur de la couche neigeuse Non disponible.
UV 0 sur 12
Pollen 10.30 sur 12
Qualité de l'air Non disponible.
Flu Activity Non disponible.
METAR KTDF 020935Z AUTO 20004KT 10SM CLR 06/02 A3029 RMK AO2

More Conditions Fewer Conditions

Pression 30.29 pouce
Visibilité 10.0 Miles terrestres
Nuages Ciel dégagé
Refroidissement éolien 40 ° F
Point de rosée 36 ° F
Humidité 76%
Précipitations 0.00 pouce
Profondeur de la couche neigeuse Non disponible.
UV 0 sur 12
Pollen 10.30 sur 12
Qualité de l'air Non disponible.
Flu Activity Non disponible.
METAR KTDF 020935Z AUTO 20004KT 10SM CLR 06/02 A3029 RMK AO2

More Conditions Fewer Conditions

10-Day Weather Forecast

Almanac

Astronomie

Apr. 02, 2015 Lever Coucher
Temps réel
Crépuscule civil
Crépuscule nautique
Crépuscule astronomique
Lune
Durée de lumière visible
Longueur du jour
Tomorrow will be .
, % of the Moon is Illuminated

Extrêmes aujourd'hui

State Highs State Lows

Community

WunderPhotos

Upload Photos

1,810,216 Photos téléchargées !

WunderBlogs® & News

Nearby

Qualité de l'air

  Qualité de l'air Indice de la qualité de l'air Polluant
Not available.

Épaisseur de neige

Station Depth Altitude

Activité sismique

Ville Distance Mag. Time & Date
Minimum magnitude displayed is 2.5.

Températures des eaux côtières

Lieu Température

Stations

Stations météo à proximité

Emplacement de la station Température Refroidissement éolien Point de rosée Humidité Vent Precip. Alt. Mise à jour Type